Time;durP1;ratioP1;P1;durP2;ratioP2;P2;SDS_P1;SDS_P2;PMS_P1;PMS_P2;Temp;Humidity;BMP_temperature;BMP_pressure;BME280_temperature;BME280_humidity;BME280_pressure;Samples;Min_cycle;Max_cycle;Signal;HPM_P1;HPM_P2
2022/06/27 00:00:55;;;;;;;3.88;0.93;;;18.20;99.90;;;;;;5042454;28;20025;-71
2022/06/27 00:03:21;;;;;;;3.22;0.90;;;18.20;99.90;;;;;;5046904;28;20037;-72
2022/06/27 00:05:46;;;;;;;2.05;0.77;;;18.30;99.90;;;;;;5047030;28;20090;-72
2022/06/27 00:08:12;;;;;;;3.22;0.95;;;18.30;99.90;;;;;;5041200;28;20033;-70
2022/06/27 00:10:39;;;;;;;3.28;0.80;;;18.30;99.90;;;;;;5043380;28;20048;-69
2022/06/27 00:13:05;;;;;;;6.38;1.25;;;18.30;99.90;;;;;;5038675;28;20417;-72
2022/06/27 00:15:31;;;;;;;4.38;1.60;;;18.30;99.90;;;;;;5043517;28;20040;-70
2022/06/27 00:17:57;;;;;;;2.78;1.45;;;18.30;99.90;;;;;;5039432;28;20037;-72
2022/06/27 00:20:24;;;;;;;3.38;1.27;;;18.30;99.90;;;;;;5025066;28;20033;-70
2022/06/27 00:22:50;;;;;;;7.45;1.20;;;18.30;99.90;;;;;;5040931;28;20037;-70
2022/06/27 00:25:16;;;;;;;2.70;1.17;;;18.30;99.90;;;;;;5043604;28;20056;-68
2022/06/27 00:27:42;;;;;;;3.38;1.15;;;18.30;99.90;;;;;;5016045;28;20076;-71
2022/06/27 00:30:08;;;;;;;3.50;1.73;;;18.30;99.90;;;;;;5024101;28;20370;-68
2022/06/27 00:32:34;;;;;;;4.35;1.42;;;18.20;99.90;;;;;;5025181;28;20479;-70
2022/06/27 00:35:00;;;;;;;7.43;1.40;;;18.20;99.90;;;;;;5021194;28;20112;-69
2022/06/27 00:37:25;;;;;;;4.10;1.23;;;18.20;99.90;;;;;;5022008;28;20103;-72
2022/06/27 00:39:51;;;;;;;2.63;1.08;;;18.20;99.90;;;;;;5042578;28;20037;-71
2022/06/27 00:42:16;;;;;;;4.60;1.55;;;18.10;99.90;;;;;;5043728;28;20025;-72
2022/06/27 00:44:43;;;;;;;3.88;1.50;;;18.10;99.90;;;;;;5040998;28;20045;-72
2022/06/27 00:47:12;;;;;;;4.28;1.58;;;18.10;99.90;;;;;;5041051;28;20086;-73
2022/06/27 00:49:38;;;;;;;3.42;1.60;;;18.10;99.90;;;;;;5040006;28;20036;-73
2022/06/27 00:52:06;;;;;;;3.28;1.55;;;18.00;99.90;;;;;;5023828;28;20033;-73
2022/06/27 00:54:33;;;;;;;6.07;1.52;;;18.00;99.90;;;;;;5042758;28;20139;-70
2022/06/27 00:56:59;;;;;;;5.00;1.83;;;18.10;99.90;;;;;;5038359;28;20104;-72
2022/06/27 00:59:24;;;;;;;4.13;1.40;;;18.00;99.90;;;;;;5044353;28;20056;-71
2022/06/27 01:01:50;;;;;;;4.10;1.48;;;18.00;99.90;;;;;;5041759;28;20067;-70
2022/06/27 01:04:16;;;;;;;2.60;1.50;;;18.00;99.90;;;;;;5023105;28;20526;-69
2022/06/27 01:06:42;;;;;;;6.35;1.40;;;18.00;99.90;;;;;;5042728;28;20409;-71
2022/06/27 01:09:08;;;;;;;5.40;1.95;;;18.00;99.90;;;;;;5026991;28;20030;-70
2022/06/27 01:11:34;;;;;;;3.67;1.33;;;17.90;99.90;;;;;;5054025;28;20393;-70
2022/06/27 01:14:00;;;;;;;5.85;1.52;;;17.90;99.90;;;;;;5031711;28;20040;-69
2022/06/27 01:16:26;;;;;;;3.67;1.30;;;17.90;99.90;;;;;;5028495;28;20037;-70
2022/06/27 01:18:52;;;;;;;5.55;1.40;;;17.90;99.90;;;;;;5024161;28;20033;-71
2022/06/27 01:21:25;;;;;;;6.03;1.77;;;17.90;99.90;;;;;;5022476;28;20109;-68
2022/06/27 01:23:52;;;;;;;5.32;1.45;;;17.80;99.90;;;;;;5040547;28;20080;-70
2022/06/27 01:26:19;;;;;;;4.75;1.80;;;17.80;99.90;;;;;;5024991;28;20551;-69
2022/06/27 01:28:45;;;;;;;5.20;1.90;;;17.90;99.90;;;;;;5022332;28;20041;-71
2022/06/27 01:31:13;;;;;;;3.70;1.58;;;17.90;99.90;;;;;;5023802;28;20032;-70
2022/06/27 01:33:39;;;;;;;6.45;2.00;;;17.80;99.90;;;;;;5045475;28;20072;-71
2022/06/27 01:38:51;;;;;;;3.80;2.13;;;17.80;99.90;;;;;;5043655;28;20060;-69
2022/06/27 01:41:17;;;;;;;4.50;1.85;;;17.80;99.90;;;;;;5039818;28;20113;-67
2022/06/27 01:43:44;;;;;;;8.77;2.72;;;17.80;99.90;;;;;;5040099;28;20037;-71
2022/06/27 01:46:10;;;;;;;12.05;2.63;;;17.80;99.90;;;;;;5039675;28;20037;-70
2022/06/27 01:48:38;;;;;;;7.20;2.50;;;17.70;99.90;;;;;;5041064;28;20515;-70
2022/06/27 01:51:03;;;;;;;6.32;2.85;;;17.70;99.90;;;;;;5019882;28;20053;-67
2022/06/27 01:53:29;;;;;;;7.03;2.88;;;17.70;99.90;;;;;;5041098;28;20041;-70
2022/06/27 01:55:55;;;;;;;6.53;2.42;;;17.70;99.90;;;;;;5015864;28;20033;-68
2022/06/27 01:58:21;;;;;;;6.80;2.90;;;17.60;99.90;;;;;;5023651;28;20029;-70
2022/06/27 02:00:47;;;;;;;4.85;2.50;;;17.60;99.90;;;;;;5039836;28;20435;-69
2022/06/27 02:03:13;;;;;;;5.07;2.65;;;17.60;99.90;;;;;;5020585;28;20041;-70
2022/06/27 02:05:39;;;;;;;5.35;2.70;;;17.60;99.90;;;;;;5040519;28;20037;-69
2022/06/27 02:08:05;;;;;;;12.63;2.38;;;17.50;99.90;;;;;;5020136;28;20041;-68
2022/06/27 02:10:31;;;;;;;4.35;2.08;;;17.50;99.90;;;;;;5023590;28;20094;-70
2022/06/27 02:12:57;;;;;;;4.55;2.40;;;17.40;99.90;;;;;;5036714;28;20026;-71
2022/06/27 02:15:23;;;;;;;9.68;3.38;;;17.40;99.90;;;;;;5040918;28;20517;-72
2022/06/27 02:17:48;;;;;;;6.18;2.88;;;17.40;99.90;;;;;;5037668;28;20803;-71
2022/06/27 02:20:15;;;;;;;6.72;2.83;;;17.30;99.90;;;;;;5038668;28;21521;-72
2022/06/27 02:22:40;;;;;;;9.20;3.35;;;17.30;99.90;;;;;;5039130;28;20036;-73
2022/06/27 02:25:06;;;;;;;7.55;2.55;;;17.30;99.90;;;;;;5040370;28;20032;-71
2022/06/27 02:27:34;;;;;;;10.18;3.42;;;17.20;99.90;;;;;;5040729;28;20617;-70
2022/06/27 02:30:00;;;;;;;4.82;3.17;;;17.20;99.90;;;;;;5039912;28;20033;-72
2022/06/27 02:32:28;;;;;;;5.65;3.30;;;17.20;99.90;;;;;;5037209;28;20402;-73
2022/06/27 02:34:56;;;;;;;5.20;2.88;;;17.20;99.90;;;;;;5032437;28;20032;-72
2022/06/27 02:37:24;;;;;;;9.90;3.58;;;17.10;99.90;;;;;;5036863;28;20033;-72
2022/06/27 02:39:51;;;;;;;9.30;2.70;;;17.10;99.90;;;;;;5039938;28;20033;-73
2022/06/27 02:42:21;;;;;;;10.48;3.50;;;17.10;99.90;;;;;;5037571;28;20037;-71
2022/06/27 02:44:50;;;;;;;6.05;2.22;;;17.00;99.90;;;;;;5023494;28;20075;-72
2022/06/27 02:47:21;;;;;;;12.38;3.00;;;17.00;99.90;;;;;;5039072;28;20048;-73
2022/06/27 02:49:48;;;;;;;6.57;2.97;;;16.90;99.90;;;;;;5020294;28;20041;-71
2022/06/27 02:52:22;;;;;;;10.80;3.05;;;16.90;99.90;;;;;;5039024;28;20547;-73
2022/06/27 02:55:12;;;;;;;6.57;3.17;;;16.90;99.90;;;;;;5040466;28;20041;-71
2022/06/27 02:57:47;;;;;;;5.68;2.42;;;16.80;99.90;;;;;;5051927;28;20033;-71
2022/06/27 03:00:14;;;;;;;7.20;3.28;;;16.80;99.90;;;;;;5033392;28;20044;-72
2022/06/27 03:02:42;;;;;;;6.50;3.35;;;16.80;99.90;;;;;;5029112;28;20512;-72
2022/06/27 03:05:08;;;;;;;12.23;3.35;;;16.80;99.90;;;;;;5023203;28;20067;-72
2022/06/27 03:07:38;;;;;;;5.47;2.80;;;16.80;99.90;;;;;;5024668;28;20033;-69
2022/06/27 03:10:05;;;;;;;6.40;3.00;;;16.80;99.90;;;;;;5044344;28;20033;-67
2022/06/27 03:12:30;;;;;;;7.70;4.07;;;16.80;99.90;;;;;;5021707;28;20037;-70
2022/06/27 03:14:56;;;;;;;7.20;3.25;;;16.70;99.90;;;;;;5040309;28;20504;-69
2022/06/27 03:17:21;;;;;;;7.90;3.28;;;16.70;99.90;;;;;;5038189;28;20033;-69
2022/06/27 03:19:50;;;;;;;7.03;3.20;;;16.70;99.90;;;;;;5040721;28;20497;-70
2022/06/27 03:22:15;;;;;;;7.32;3.15;;;16.70;99.90;;;;;;5019307;28;20128;-70
2022/06/27 03:24:41;;;;;;;11.15;3.30;;;16.60;99.90;;;;;;5021445;28;20093;-70
2022/06/27 03:27:06;;;;;;;12.90;3.45;;;16.60;99.90;;;;;;5039546;28;20041;-69
2022/06/27 03:29:32;;;;;;;5.32;3.05;;;16.60;99.90;;;;;;5039612;28;20037;-70
2022/06/27 03:31:57;;;;;;;4.78;2.90;;;16.60;99.90;;;;;;5018604;28;20517;-73
2022/06/27 03:34:23;;;;;;;8.15;2.97;;;16.50;99.90;;;;;;5039706;28;20087;-72
2022/06/27 03:36:49;;;;;;;9.52;3.88;;;16.60;99.90;;;;;;5019059;28;20033;-72
2022/06/27 03:39:15;;;;;;;7.82;3.20;;;16.50;99.90;;;;;;5019661;28;20079;-72
2022/06/27 03:41:41;;;;;;;11.38;3.90;;;16.60;99.90;;;;;;5033394;28;20030;-72
2022/06/27 03:44:11;;;;;;;6.57;3.22;;;16.60;99.90;;;;;;5033320;28;20029;-72
2022/06/27 03:46:36;;;;;;;;;;;16.60;99.90;;;;;;5039863;28;20087;-71
2022/06/27 03:51:48;;;;;;;7.78;3.70;;;16.50;99.90;;;;;;5040109;28;20524;-72
2022/06/27 03:54:13;;;;;;;6.18;3.83;;;16.50;99.90;;;;;;5017028;28;20065;-71
2022/06/27 03:56:39;;;;;;;12.30;3.72;;;16.50;99.90;;;;;;5038558;28;20444;-72
2022/06/27 03:59:04;;;;;;;8.57;3.63;;;16.50;99.90;;;;;;5037411;28;20041;-70
2022/06/27 04:01:30;;;;;;;4.97;3.10;;;16.60;99.90;;;;;;5037329;28;20048;-71
2022/06/27 04:03:56;;;;;;;7.50;3.08;;;16.50;99.90;;;;;;5018467;28;20052;-68
2022/06/27 04:06:22;;;;;;;7.75;2.90;;;16.50;99.90;;;;;;5032271;28;20687;-68
2022/06/27 04:08:47;;;;;;;6.50;2.88;;;16.50;99.90;;;;;;5017120;28;20508;-70
2022/06/27 04:11:13;;;;;;;9.95;3.80;;;16.50;99.90;;;;;;5017862;28;20436;-70
2022/06/27 04:13:39;;;;;;;6.53;3.45;;;16.50;99.90;;;;;;5039310;28;20409;-69
2022/06/27 04:16:05;;;;;;;5.47;3.20;;;16.50;99.90;;;;;;5037228;28;20041;-69
2022/06/27 04:18:30;;;;;;;7.65;3.40;;;16.50;99.90;;;;;;5020114;28;20037;-71
2022/06/27 04:20:56;;;;;;;6.82;3.40;;;16.50;99.90;;;;;;5010369;28;20166;-68
2022/06/27 04:23:22;;;;;;;10.02;3.55;;;16.60;99.90;;;;;;5033226;28;20613;-71
2022/06/27 04:25:47;;;;;;;8.32;3.63;;;16.70;99.90;;;;;;5045099;28;20039;-68
2022/06/27 04:28:13;;;;;;;6.35;3.55;;;16.70;99.90;;;;;;5044428;28;20033;-70
2022/06/27 04:30:40;;;;;;;7.45;3.17;;;16.80;99.90;;;;;;5041993;28;20041;-69
2022/06/27 04:33:07;;;;;;;6.85;3.47;;;16.90;99.90;;;;;;5018750;28;20061;-68
2022/06/27 04:35:33;;;;;;;5.90;3.45;;;17.00;99.90;;;;;;5019446;28;20396;-68
2022/06/27 04:37:58;;;;;;;10.35;4.07;;;17.10;99.90;;;;;;5035646;28;20133;-69
2022/06/27 04:40:25;;;;;;;7.38;3.60;;;17.20;99.90;;;;;;5044409;28;20489;-69
2022/06/27 04:42:50;;;;;;;7.50;3.97;;;17.20;99.90;;;;;;5050073;28;20028;-68
2022/06/27 04:45:18;;;;;;;6.75;3.60;;;17.20;99.90;;;;;;5055239;28;20037;-70
2022/06/27 04:47:45;;;;;;;7.30;3.58;;;17.30;99.90;;;;;;5028663;28;20060;-70
2022/06/27 04:50:14;;;;;;;7.88;3.38;;;17.30;99.90;;;;;;5039081;28;20253;-68
2022/06/27 04:52:40;;;;;;;15.65;4.50;;;17.30;99.90;;;;;;5027709;28;20040;-71
2022/06/27 04:55:08;;;;;;;10.45;3.63;;;17.40;99.90;;;;;;5039376;28;20085;-72
2022/06/27 04:57:36;;;;;;;8.10;3.63;;;17.40;99.90;;;;;;5023946;28;20048;-72
2022/06/27 05:00:04;;;;;;;8.30;3.78;;;17.50;99.90;;;;;;5035430;28;20164;-72
2022/06/27 05:02:29;;;;;;;12.95;4.05;;;17.50;99.90;;;;;;5034457;28;20026;-72
2022/06/27 05:04:55;;;;;;;7.80;3.90;;;17.50;99.90;;;;;;5028036;28;20029;-71
2022/06/27 05:07:22;;;;;;;9.15;3.50;;;17.50;99.90;;;;;;5044494;28;20021;-72
2022/06/27 05:09:47;;;;;;;7.97;3.53;;;17.60;99.90;;;;;;5042690;28;20045;-72
2022/06/27 05:12:13;;;;;;;9.93;3.53;;;17.50;99.90;;;;;;5041812;28;20501;-72
2022/06/27 05:14:39;;;;;;;10.85;3.92;;;17.60;99.90;;;;;;5040222;28;20432;-72
2022/06/27 05:17:04;;;;;;;6.68;3.90;;;17.60;99.90;;;;;;5040905;28;20056;-73
2022/06/27 05:19:30;;;;;;;17.33;3.72;;;17.70;99.90;;;;;;5026989;28;20025;-72
2022/06/27 05:21:56;;;;;;;10.40;4.20;;;17.60;99.90;;;;;;5021594;28;20032;-72
2022/06/27 05:24:21;;;;;;;11.23;3.67;;;17.70;99.90;;;;;;5041941;28;20021;-71
2022/06/27 05:26:47;;;;;;;10.25;4.50;;;17.70;99.90;;;;;;5023144;28;20030;-72
2022/06/27 05:29:13;;;;;;;6.28;3.35;;;17.80;99.90;;;;;;5032754;28;20081;-71
2022/06/27 05:31:39;;;;;;;11.27;4.07;;;17.90;99.90;;;;;;5023766;28;20091;-72
2022/06/27 05:34:05;;;;;;;6.38;3.45;;;18.00;99.90;;;;;;5038425;28;20029;-73
2022/06/27 05:36:30;;;;;;;7.05;3.25;;;18.00;99.90;;;;;;5024874;28;20033;-72
2022/06/27 05:38:56;;;;;;;10.88;3.60;;;18.00;99.90;;;;;;5038581;28;20041;-72
2022/06/27 05:41:22;;;;;;;5.45;3.28;;;18.00;99.90;;;;;;5023659;28;20033;-70
2022/06/27 05:43:48;;;;;;;8.85;4.35;;;18.10;99.90;;;;;;5020434;28;20045;-71
2022/06/27 05:46:14;;;;;;;8.25;4.53;;;18.10;99.90;;;;;;5041424;28;20397;-71
2022/06/27 05:48:39;;;;;;;7.47;3.13;;;18.20;99.90;;;;;;5038692;28;20030;-72
2022/06/27 05:51:05;;;;;;;10.73;3.90;;;18.20;99.90;;;;;;5039937;28;20037;-72
2022/06/27 05:53:32;;;;;;;7.97;4.20;;;18.20;99.90;;;;;;5021235;28;20140;-72
2022/06/27 05:55:58;;;;;;;7.95;4.75;;;18.20;99.90;;;;;;5040846;28;20486;-70
2022/06/27 05:58:24;;;;;;;8.35;4.20;;;18.20;99.90;;;;;;5025715;28;20049;-71
2022/06/27 06:00:50;;;;;;;9.77;4.55;;;18.20;99.90;;;;;;5045385;28;20040;-71
2022/06/27 06:03:16;;;;;;;12.85;4.57;;;18.20;99.90;;;;;;5019881;28;20064;-72
2022/06/27 06:05:44;;;;;;;6.65;3.85;;;18.10;99.90;;;;;;5041948;28;20507;-73
2022/06/27 06:08:11;;;;;;;11.88;4.70;;;18.10;99.90;;;;;;5019893;28;21193;-71
2022/06/27 06:10:37;;;;;;;10.10;4.40;;;18.10;99.90;;;;;;5043947;28;20792;-70
2022/06/27 06:13:03;;;;;;;8.52;4.10;;;18.00;99.90;;;;;;5038825;28;20033;-72
2022/06/27 06:15:31;;;;;;;8.65;4.43;;;18.00;99.90;;;;;;5039756;28;20087;-72
2022/06/27 06:17:59;;;;;;;8.15;4.43;;;18.00;99.90;;;;;;5020912;28;20044;-71
2022/06/27 06:20:26;;;;;;;8.80;4.45;;;17.90;99.90;;;;;;5019433;28;20108;-69
2022/06/27 06:22:54;;;;;;;9.35;4.75;;;18.00;99.90;;;;;;5021839;28;20405;-70
2022/06/27 06:25:20;;;;;;;10.80;5.57;;;18.00;99.90;;;;;;5038155;28;20033;-72
2022/06/27 06:27:46;;;;;;;7.82;4.32;;;18.00;99.90;;;;;;5022312;28;20029;-71
2022/06/27 06:30:12;;;;;;;10.77;4.63;;;18.00;99.90;;;;;;5036595;28;20104;-70
2022/06/27 06:32:38;;;;;;;10.85;5.05;;;18.00;99.90;;;;;;5041024;28;20040;-70
2022/06/27 06:35:05;;;;;;;11.63;5.00;;;18.10;99.90;;;;;;5041653;28;20029;-73
2022/06/27 06:37:31;;;;;;;9.02;5.35;;;18.10;99.90;;;;;;5051613;28;20094;-70
2022/06/27 06:39:57;;;;;;;11.30;5.68;;;18.20;99.90;;;;;;5048241;28;20052;-72
2022/06/27 06:42:23;;;;;;;11.48;4.80;;;18.30;99.90;;;;;;5026265;28;20025;-68
2022/06/27 06:44:52;;;;;;;10.02;5.00;;;18.40;99.90;;;;;;5038117;28;20037;-70
2022/06/27 06:47:19;;;;;;;9.13;4.93;;;18.40;99.90;;;;;;5039734;28;20055;-69
2022/06/27 06:49:46;;;;;;;10.25;5.63;;;18.50;99.90;;;;;;5019901;28;20091;-70
2022/06/27 06:52:12;;;;;;;7.13;4.47;;;18.60;99.90;;;;;;5039525;28;20037;-71
2022/06/27 06:54:39;;;;;;;7.43;4.75;;;18.60;99.90;;;;;;5032689;28;20022;-67
2022/06/27 06:57:05;;;;;;;9.50;4.90;;;18.60;99.90;;;;;;5038168;28;20025;-71
2022/06/27 06:59:31;;;;;;;7.20;4.43;;;18.60;99.90;;;;;;5020015;28;20618;-72
2022/06/27 07:01:56;;;;;;;9.70;5.28;;;18.60;99.90;;;;;;5038020;28;20040;-73
2022/06/27 07:04:23;;;;;;;10.60;5.45;;;18.60;99.90;;;;;;5037714;28;20126;-72
2022/06/27 07:06:49;;;;;;;12.00;4.78;;;18.70;99.90;;;;;;5019970;28;20037;-72
2022/06/27 07:09:15;;;;;;;10.52;4.50;;;18.70;99.90;;;;;;5039304;28;20026;-72
2022/06/27 07:11:40;;;;;;;9.52;4.72;;;18.70;99.90;;;;;;5039869;28;20037;-73
2022/06/27 07:14:07;;;;;;;7.28;4.03;;;18.70;99.90;;;;;;5038605;28;20032;-72
2022/06/27 07:16:32;;;;;;;9.80;4.38;;;18.70;99.90;;;;;;5019437;28;20397;-73
2022/06/27 07:19:02;;;;;;;8.10;4.45;;;18.70;99.90;;;;;;5037910;28;20034;-70
2022/06/27 07:21:31;;;;;;;10.00;4.95;;;18.70;99.90;;;;;;5040719;28;20037;-72
2022/06/27 07:23:58;;;;;;;7.50;3.88;;;18.70;99.90;;;;;;5019650;28;20112;-70
2022/06/27 07:26:27;;;;;;;6.68;4.00;;;18.70;99.90;;;;;;5022226;28;20033;-71
2022/06/27 07:28:53;;;;;;;8.45;4.13;;;18.70;99.90;;;;;;5037527;28;20137;-69
2022/06/27 07:31:19;;;;;;;7.00;4.32;;;18.70;99.90;;;;;;5038128;28;20912;-72
2022/06/27 07:33:51;;;;;;;11.27;4.47;;;18.70;99.90;;;;;;5036655;28;20064;-72
2022/06/27 07:36:19;;;;;;;8.27;4.38;;;18.80;99.90;;;;;;5038294;28;20044;-72
2022/06/27 07:38:49;;;;;;;7.90;3.83;;;18.80;99.90;;;;;;5036583;28;20041;-72
2022/06/27 07:41:19;;;;;;;14.32;4.60;;;18.80;99.90;;;;;;5038088;28;20053;-72
2022/06/27 07:43:46;;;;;;;11.32;3.95;;;18.70;99.90;;;;;;5036680;28;20494;-73
2022/06/27 07:46:12;;;;;;;7.40;3.92;;;18.70;99.90;;;;;;5038658;28;20043;-72
2022/06/27 07:48:38;;;;;;;7.95;3.78;;;18.80;99.90;;;;;;5018461;28;20630;-69
2022/06/27 07:51:04;;;;;;;8.73;3.88;;;18.80;99.90;;;;;;5038732;28;20048;-70
2022/06/27 07:53:30;;;;;;;7.07;4.22;;;18.90;99.90;;;;;;5036210;28;20091;-72
2022/06/27 07:55:58;;;;;;;9.13;4.32;;;18.90;99.90;;;;;;5037616;28;20068;-72
2022/06/27 07:58:30;;;;;;;8.40;4.15;;;19.00;99.90;;;;;;5018979;28;20037;-70
2022/06/27 08:00:59;;;;;;;6.88;3.38;;;19.00;99.90;;;;;;5038179;28;20029;-73
2022/06/27 08:03:39;;;;;;;6.88;4.00;;;19.00;99.90;;;;;;5036653;28;20051;-69
2022/06/27 08:06:11;;;;;;;8.27;3.53;;;19.00;99.90;;;;;;5030503;28;20033;-72
2022/06/27 08:08:39;;;;;;;8.10;3.85;;;19.00;99.90;;;;;;5014097;28;20068;-71
2022/06/27 08:11:06;;;;;;;8.15;3.65;;;19.00;99.90;;;;;;5038376;28;20061;-72
2022/06/27 08:13:32;;;;;;;7.63;4.45;;;19.00;99.90;;;;;;5025015;28;20034;-72
2022/06/27 08:15:59;;;;;;;7.28;4.03;;;19.00;99.90;;;;;;5036544;28;20037;-70
2022/06/27 08:18:26;;;;;;;7.32;4.30;;;19.00;99.90;;;;;;5040115;28;20091;-71
2022/06/27 08:20:52;;;;;;;7.25;4.47;;;19.00;99.90;;;;;;5041179;28;20033;-70
2022/06/27 08:23:19;;;;;;;10.65;4.50;;;19.00;99.90;;;;;;5023239;28;20037;-71
2022/06/27 08:25:46;;;;;;;7.72;4.38;;;19.10;99.90;;;;;;5022997;28;20049;-72
2022/06/27 08:28:15;;;;;;;8.82;4.60;;;19.30;99.90;;;;;;5041352;28;20036;-70
2022/06/27 08:30:41;;;;;;;9.38;4.00;;;19.30;99.90;;;;;;5022388;28;20049;-71
2022/06/27 08:33:08;;;;;;;8.43;4.05;;;19.40;99.90;;;;;;5041652;28;20463;-71
2022/06/27 08:35:35;;;;;;;14.90;4.40;;;19.40;99.90;;;;;;5022007;28;20038;-71
2022/06/27 08:38:01;;;;;;;10.88;3.58;;;19.50;99.90;;;;;;5024225;28;20029;-72
2022/06/27 08:40:27;;;;;;;10.00;3.50;;;19.50;99.90;;;;;;5040267;28;20116;-70
2022/06/27 08:42:55;;;;;;;7.82;3.47;;;19.70;99.90;;;;;;5040935;28;20037;-69
2022/06/27 08:45:24;;;;;;;7.47;3.63;;;19.70;99.90;;;;;;5039991;28;20482;-73
2022/06/27 08:47:50;;;;;;;8.27;4.15;;;19.70;99.90;;;;;;5023379;28;20029;-72
2022/06/27 08:50:17;;;;;;;6.53;3.28;;;19.70;99.90;;;;;;5040707;28;20048;-72
2022/06/27 08:52:45;;;;;;;12.43;4.80;;;19.70;99.90;;;;;;5039870;28;20060;-73
2022/06/27 08:55:12;;;;;;;8.00;3.28;;;19.70;99.90;;;;;;5040727;28;20037;-71
2022/06/27 08:57:41;;;;;;;10.15;4.47;;;19.70;99.90;;;;;;5039499;28;20041;-72
2022/06/27 09:00:09;;;;;;;8.43;4.37;;;19.60;99.90;;;;;;5041223;28;20025;-72
2022/06/27 09:02:42;;;;;;;8.95;3.90;;;19.50;99.90;;;;;;5021142;28;20130;-73
2022/06/27 09:05:29;;;;;;;7.20;3.22;;;19.50;99.90;;;;;;5035231;28;20026;-71
2022/06/27 09:07:59;;;;;;;8.88;3.67;;;19.40;99.90;;;;;;5039496;28;20447;-71
2022/06/27 09:10:42;;;;;;;8.93;3.47;;;19.40;99.90;;;;;;5024380;28;20037;-71
2022/06/27 09:13:09;;;;;;;7.18;3.28;;;19.40;99.90;;;;;;5034879;28;20037;-71
2022/06/27 09:15:46;;;;;;;8.18;3.88;;;19.40;99.90;;;;;;5041933;28;20045;-72
2022/06/27 09:18:15;;;;;;;8.70;3.67;;;19.40;99.90;;;;;;5038987;28;20063;-71
2022/06/27 09:21:01;;;;;;;7.68;3.58;;;19.40;99.90;;;;;;5023481;28;20060;-69
2022/06/27 09:23:50;;;;;;;10.20;3.50;;;19.40;99.90;;;;;;5040714;28;20107;-71
2022/06/27 09:26:25;;;;;;;5.75;3.28;;;19.40;99.90;;;;;;5041071;28;20045;-72
2022/06/27 09:28:56;;;;;;;7.28;4.03;;;19.30;99.90;;;;;;5021614;28;20041;-73
2022/06/27 09:31:28;;;;;;;6.45;3.25;;;19.20;99.90;;;;;;5039883;28;20111;-73
2022/06/27 09:34:16;;;;;;;5.75;3.10;;;19.20;99.90;;;;;;5035043;28;20151;-70
2022/06/27 09:36:52;;;;;;;8.05;3.72;;;19.20;99.90;;;;;;5035155;28;20041;-70
2022/06/27 09:39:39;;;;;;;11.57;3.08;;;19.20;99.90;;;;;;5038045;28;20060;-73
2022/06/27 09:42:14;;;;;;;7.28;3.10;;;19.30;99.90;;;;;;5016482;28;20041;-71
2022/06/27 09:44:42;;;;;;;6.50;2.78;;;19.30;99.90;;;;;;5020553;28;20174;-71
2022/06/27 09:47:17;;;;;;;8.77;3.45;;;19.30;99.90;;;;;;5038240;28;20029;-73
2022/06/27 09:49:44;;;;;;;9.00;3.38;;;19.40;99.90;;;;;;5039979;28;20575;-72
2022/06/27 09:52:14;;;;;;;9.52;3.70;;;19.40;99.90;;;;;;5019343;28;20033;-72
2022/06/27 09:54:42;;;;;;;6.93;3.97;;;19.40;99.90;;;;;;5040593;28;20125;-70
2022/06/27 09:57:09;;;;;;;7.50;3.47;;;19.40;99.90;;;;;;5037990;28;20171;-71
2022/06/27 09:59:36;;;;;;;10.07;3.67;;;19.50;99.90;;;;;;5023294;28;20059;-72
2022/06/27 10:02:04;;;;;;;7.30;3.60;;;19.50;99.90;;;;;;5036997;28;20029;-72
2022/06/27 10:04:31;;;;;;;8.93;4.55;;;19.50;99.90;;;;;;5032227;28;20061;-72
2022/06/27 10:07:00;;;;;;;11.23;4.18;;;19.50;99.90;;;;;;5015171;28;20033;-70
2022/06/27 10:09:29;;;;;;;8.93;4.15;;;19.40;99.90;;;;;;5022279;28;20052;-72
2022/06/27 10:12:25;;;;;;;8.52;3.67;;;19.30;99.90;;;;;;5041240;28;20069;-72
2022/06/27 10:15:10;;;;;;;7.97;3.70;;;19.30;99.90;;;;;;5036366;28;20129;-72
2022/06/27 10:17:51;;;;;;;7.80;4.30;;;19.30;99.90;;;;;;5041252;28;20116;-73
2022/06/27 10:20:21;;;;;;;6.80;3.85;;;19.30;99.90;;;;;;5021075;28;20401;-72
2022/06/27 10:22:48;;;;;;;14.60;4.43;;;19.40;99.90;;;;;;5020628;28;20028;-72
2022/06/27 10:25:35;;;;;;;9.68;4.28;;;19.40;99.90;;;;;;5041450;28;21024;-71
2022/06/27 10:28:22;;;;;;;9.93;4.75;;;19.50;99.90;;;;;;5009310;28;20053;-71
2022/06/27 10:30:57;;;;;;;7.10;4.22;;;19.60;99.90;;;;;;5021323;28;20035;-70
2022/06/27 10:33:22;;;;;;;9.30;4.22;;;19.70;99.90;;;;;;5039392;28;20036;-72
2022/06/27 10:35:57;;;;;;;8.90;4.18;;;19.70;99.90;;;;;;5038305;28;20032;-73
2022/06/27 10:38:33;;;;;;;9.75;3.85;;;19.70;99.90;;;;;;5039796;28;20033;-73
2022/06/27 10:41:04;;;;;;;7.25;3.63;;;19.60;99.90;;;;;;5032016;28;20113;-70
2022/06/27 10:43:35;;;;;;;;;;;19.60;99.90;;;;;;5013266;28;20038;-72
2022/06/27 10:46:21;;;;;;;7.38;3.67;;;19.50;99.90;;;;;;5038202;28;20388;-72
2022/06/27 10:48:53;;;;;;;9.00;4.07;;;19.50;99.90;;;;;;5039325;28;20037;-72
2022/06/27 10:51:19;;;;;;;12.07;4.70;;;19.50;99.90;;;;;;5037039;28;20396;-73
2022/06/27 10:53:45;;;;;;;6.40;3.33;;;19.50;99.90;;;;;;5037329;28;20034;-72
2022/06/27 10:56:26;;;;;;;8.75;3.83;;;19.50;99.90;;;;;;5019739;28;20052;-73
2022/06/27 10:58:52;;;;;;;7.97;4.22;;;19.40;99.90;;;;;;5039569;28;20037;-72
2022/06/27 11:01:21;;;;;;;6.95;3.72;;;19.40;99.90;;;;;;5036932;28;20041;-72
2022/06/27 11:03:48;;;;;;;8.55;3.53;;;19.40;99.90;;;;;;5035606;28;20446;-73
2022/06/27 11:06:14;;;;;;;9.52;4.18;;;19.40;99.90;;;;;;5040659;28;20031;-70
2022/06/27 11:08:42;;;;;;;7.78;3.80;;;19.40;99.90;;;;;;5035644;28;20576;-72
2022/06/27 11:11:08;;;;;;;10.80;4.00;;;19.50;99.90;;;;;;5020583;28;20056;-70
2022/06/27 11:13:58;;;;;;;9.02;3.95;;;19.60;99.90;;;;;;5038246;28;20497;-72
2022/06/27 11:16:27;;;;;;;8.18;4.03;;;19.60;99.90;;;;;;4989141;28;20037;-73
2022/06/27 11:19:00;;;;;;;10.30;3.60;;;19.60;99.90;;;;;;5021687;28;20043;-72
2022/06/27 11:21:29;;;;;;;7.07;3.53;;;19.70;99.90;;;;;;5032494;28;20037;-72
2022/06/27 11:24:11;;;;;;;7.30;4.07;;;19.70;99.90;;;;;;5031866;28;20037;-73
2022/06/27 11:26:45;;;;;;;6.53;3.35;;;19.80;99.90;;;;;;5037970;28;20047;-72
2022/06/27 11:32:10;;;;;;;5.57;3.05;;;20.10;99.90;;;;;;5033852;28;20040;-72
2022/06/27 11:34:39;;;;;;;7.97;3.20;;;20.20;99.90;;;;;;5038300;28;20067;-72
2022/06/27 11:37:18;;;;;;;4.95;2.42;;;20.20;99.90;;;;;;5021757;28;20520;-72
2022/06/27 11:40:04;;;;;;;4.85;2.47;;;20.30;99.90;;;;;;5037418;28;20064;-71
2022/06/27 11:42:35;;;;;;;4.30;2.25;;;20.30;99.90;;;;;;5032961;28;20454;-70
2022/06/27 11:45:07;;;;;;;5.20;2.05;;;20.30;99.90;;;;;;5036139;28;20033;-70
2022/06/27 11:47:35;;;;;;;8.77;2.72;;;20.20;99.90;;;;;;5018933;28;20952;-72
2022/06/27 11:50:06;;;;;;;7.25;2.78;;;20.10;99.90;;;;;;5037895;28;20061;-70
2022/06/27 11:52:37;;;;;;;4.55;2.50;;;20.00;99.90;;;;;;5040792;28;20036;-72
2022/06/27 11:55:11;;;;;;;6.63;2.80;;;20.10;99.90;;;;;;5036359;28;20022;-72
2022/06/27 11:57:42;;;;;;;4.93;2.90;;;20.00;99.90;;;;;;5036480;28;20037;-72
2022/06/27 12:00:19;;;;;;;9.43;3.08;;;19.90;99.90;;;;;;5022277;28;20021;-71
2022/06/27 12:02:45;;;;;;;8.32;3.35;;;19.90;99.90;;;;;;5040613;28;20029;-72
2022/06/27 12:05:16;;;;;;;7.35;3.90;;;19.80;99.90;;;;;;5023552;28;20036;-72
2022/06/27 12:08:02;;;;;;;6.30;3.72;;;19.70;99.90;;;;;;5041187;28;20040;-72
2022/06/27 12:10:44;;;;;;;9.70;4.35;;;19.60;99.90;;;;;;5044498;28;20041;-73
2022/06/27 12:13:13;;;;;;;12.32;3.72;;;19.50;99.90;;;;;;5041009;28;20030;-72
2022/06/27 12:15:41;;;;;;;12.00;4.50;;;19.40;99.90;;;;;;5041995;28;20040;-72
2022/06/27 12:18:09;;;;;;;7.38;3.08;;;19.20;99.90;;;;;;5027054;28;20029;-72
2022/06/27 12:20:35;;;;;;;9.45;4.30;;;19.10;99.90;;;;;;5053852;28;20029;-72
2022/06/27 12:23:01;;;;;;;12.20;4.47;;;18.80;99.90;;;;;;5053529;28;20055;-71
2022/06/27 12:25:28;;;;;;;10.98;4.95;;;18.60;99.90;;;;;;5030878;28;20044;-72
2022/06/27 12:27:54;;;;;;;10.02;4.30;;;18.50;99.90;;;;;;5039908;28;20120;-72
2022/06/27 12:30:19;;;;;;;7.55;3.08;;;18.30;99.90;;;;;;5041860;28;20096;-70
2022/06/27 12:32:46;;;;;;;7.93;3.28;;;18.20;99.90;;;;;;5042213;28;20120;-70
2022/06/27 12:35:12;;;;;;;9.07;2.70;;;18.00;99.90;;;;;;5022264;28;20041;-71
2022/06/27 12:37:38;;;;;;;7.13;3.72;;;18.00;99.90;;;;;;5041210;28;20661;-71
2022/06/27 12:40:06;;;;;;;4.03;2.15;;;17.80;99.90;;;;;;5039857;28;20029;-68
2022/06/27 12:42:32;;;;;;;9.45;2.30;;;17.70;99.90;;;;;;5022066;28;20041;-70
2022/06/27 12:44:58;;;;;;;12.02;3.13;;;17.60;99.90;;;;;;5041632;28;20398;-72
2022/06/27 12:47:24;;;;;;;7.88;2.33;;;17.50;99.90;;;;;;5024865;28;20033;-73
2022/06/27 12:49:50;;;;;;;7.40;2.28;;;17.40;99.90;;;;;;5039684;28;20428;-72
2022/06/27 12:52:16;;;;;;;6.95;2.05;;;17.30;99.90;;;;;;5040114;28;20029;-69
2022/06/27 12:54:43;;;;;;;5.35;2.05;;;17.30;99.90;;;;;;5022343;28;20046;-72
2022/06/27 12:57:09;;;;;;;7.65;2.00;;;17.20;99.90;;;;;;5044336;28;20484;-72
2022/06/27 12:59:35;;;;;;;4.20;2.13;;;17.20;99.90;;;;;;5024494;28;20064;-72